createdAt,value
2018-06-21T00:01:34.490Z,8.00
2018-06-21T00:04:02.329Z,7.53
2018-06-21T00:06:30.977Z,7.10
2018-06-21T00:08:59.019Z,6.30
2018-06-21T00:11:26.997Z,4.47
2018-06-21T00:13:54.832Z,4.60
2018-06-21T00:16:22.798Z,4.47
2018-06-21T00:18:50.904Z,4.50
2018-06-21T00:21:18.900Z,4.67
2018-06-21T00:23:47.617Z,3.83
2018-06-21T00:26:15.633Z,3.50
2018-06-21T00:28:43.549Z,3.30
2018-06-21T00:31:17.860Z,3.50
2018-06-21T00:33:46.156Z,2.50
2018-06-21T00:36:14.116Z,3.47
2018-06-21T00:38:42.067Z,3.40
2018-06-21T00:41:10.029Z,3.40
2018-06-21T00:43:38.203Z,3.70
2018-06-21T00:46:06.284Z,3.87
2018-06-21T00:48:34.273Z,2.87
2018-06-21T00:51:02.081Z,3.33
2018-06-21T00:53:29.924Z,4.00
2018-06-21T00:56:03.114Z,3.47
2018-06-21T00:58:31.688Z,2.73
2018-06-21T01:00:59.506Z,3.27
2018-06-21T01:03:27.348Z,3.57
2018-06-21T01:05:55.127Z,4.30
2018-06-21T01:08:23.014Z,3.77
2018-06-21T01:10:50.935Z,3.70
2018-06-21T01:13:18.809Z,3.17
2018-06-21T01:15:46.921Z,4.27
2018-06-21T01:18:14.855Z,4.80
2018-06-21T01:20:42.864Z,4.20
2018-06-21T01:23:11.160Z,3.73
2018-06-21T01:25:39.126Z,4.57
2018-06-21T01:28:07.046Z,5.63
2018-06-21T01:30:35.085Z,4.70
2018-06-21T01:33:02.889Z,5.10
2018-06-21T01:35:30.682Z,5.00
2018-06-21T01:37:58.641Z,5.20
2018-06-21T01:40:27.141Z,5.57
2018-06-21T01:42:54.889Z,5.70
2018-06-21T01:45:22.875Z,5.40
2018-06-21T01:47:50.753Z,5.37
2018-06-21T01:50:18.896Z,5.50
2018-06-21T01:52:46.813Z,5.23
2018-06-21T01:55:14.622Z,5.27
2018-06-21T01:57:42.332Z,5.23
2018-06-21T02:00:10.305Z,6.00
2018-06-21T02:02:38.440Z,7.30
2018-06-21T02:05:06.273Z,6.00
2018-06-21T02:07:34.853Z,6.80
2018-06-21T02:10:03.593Z,6.60
2018-06-21T02:12:31.555Z,6.80
2018-06-21T02:14:59.888Z,6.27
2018-06-21T02:17:27.874Z,6.20
2018-06-21T02:19:55.751Z,6.17
2018-06-21T02:22:23.930Z,7.87
2018-06-21T02:24:52.040Z,7.53
2018-06-21T02:27:20.021Z,7.80
2018-06-21T02:29:48.164Z,6.43
2018-06-21T02:32:16.557Z,8.20
2018-06-21T02:34:44.386Z,7.60
2018-06-21T02:37:12.493Z,8.20
2018-06-21T02:39:40.671Z,7.10
2018-06-21T02:42:09.078Z,8.77
2018-06-21T02:44:38.463Z,7.57
2018-06-21T02:47:06.408Z,7.33
2018-06-21T02:49:34.182Z,7.60
2018-06-21T02:52:02.076Z,7.63
2018-06-21T02:54:30.152Z,7.07
2018-06-21T02:56:58.146Z,7.70
2018-06-21T02:59:25.950Z,5.70
2018-06-21T03:01:53.784Z,5.30
2018-06-21T03:04:21.740Z,3.97
2018-06-21T03:06:50.372Z,5.37
2018-06-21T03:09:18.290Z,5.30
2018-06-21T03:11:46.305Z,5.10
2018-06-21T03:14:14.242Z,6.50
2018-06-21T03:16:42.273Z,3.43
2018-06-21T03:19:10.232Z,4.23
2018-06-21T03:21:38.162Z,1.10
2018-06-21T03:24:06.184Z,4.47
2018-06-21T03:26:35.273Z,5.90
2018-06-21T03:29:03.332Z,4.97
2018-06-21T03:31:31.161Z,3.93
2018-06-21T03:33:59.113Z,3.33
2018-06-21T03:36:26.997Z,3.90
2018-06-21T03:38:54.898Z,2.57
2018-06-21T03:41:22.773Z,2.63
2018-06-21T03:43:50.712Z,1.67
2018-06-21T03:46:18.741Z,2.07
2018-06-21T03:48:46.859Z,1.70
2018-06-21T03:51:14.831Z,1.50
2018-06-21T03:53:42.771Z,1.20
2018-06-21T03:56:10.609Z,1.47
2018-06-21T03:58:38.412Z,1.23
2018-06-21T04:01:06.393Z,1.33
2018-06-21T04:03:34.865Z,1.63
2018-06-21T04:06:02.953Z,1.60
2018-06-21T04:08:30.990Z,1.83
2018-06-21T04:10:59.492Z,1.47
2018-06-21T04:13:27.330Z,1.40
2018-06-21T04:15:55.477Z,1.60
2018-06-21T04:18:27.837Z,1.93
2018-06-21T04:20:55.709Z,1.63
2018-06-21T04:23:23.681Z,1.17
2018-06-21T04:25:51.678Z,1.20
2018-06-21T04:28:19.493Z,1.43
2018-06-21T04:30:47.287Z,1.30
2018-06-21T04:33:15.269Z,1.47
2018-06-21T04:35:43.547Z,1.10
2018-06-21T04:38:11.397Z,1.23
2018-06-21T04:40:40.149Z,0.90
2018-06-21T04:43:08.076Z,1.90
2018-06-21T04:45:36.369Z,1.20
2018-06-21T04:48:04.193Z,1.00
2018-06-21T04:50:32.033Z,1.30
2018-06-21T04:53:00.391Z,1.37
2018-06-21T04:55:28.851Z,1.50
2018-06-21T04:57:56.865Z,1.23
2018-06-21T05:00:24.682Z,1.20
2018-06-21T05:02:52.537Z,1.20
2018-06-21T05:05:20.509Z,1.03
2018-06-21T05:07:48.512Z,1.27
2018-06-21T05:10:16.623Z,1.07
2018-06-21T05:12:44.686Z,1.60
2018-06-21T05:15:19.145Z,1.20
2018-06-21T05:17:47.542Z,1.30
2018-06-21T05:20:15.454Z,1.00
2018-06-21T05:22:43.465Z,1.43
2018-06-21T05:25:11.253Z,3.47
2018-06-21T05:27:39.068Z,1.13
2018-06-21T05:30:07.972Z,1.00
2018-06-21T05:32:35.952Z,1.30
2018-06-21T05:35:03.781Z,1.23
2018-06-21T05:37:31.518Z,1.13
2018-06-21T05:39:59.135Z,0.97
2018-06-21T05:42:26.814Z,1.67
2018-06-21T05:44:54.576Z,1.20
2018-06-21T05:47:22.524Z,1.40
2018-06-21T05:49:50.427Z,1.30
2018-06-21T05:52:18.215Z,1.60
2018-06-21T05:54:46.149Z,1.47
2018-06-21T05:57:14.317Z,1.53
2018-06-21T05:59:42.107Z,1.20
2018-06-21T06:02:09.987Z,1.57
2018-06-21T06:04:37.748Z,1.63
2018-06-21T06:07:05.613Z,1.43
2018-06-21T06:09:33.405Z,1.20
2018-06-21T06:12:01.197Z,1.27
2018-06-21T06:14:29.008Z,0.87
2018-06-21T06:16:57.037Z,2.13
2018-06-21T06:19:24.863Z,1.47
2018-06-21T06:21:52.968Z,1.00
2018-06-21T06:24:20.792Z,0.80
2018-06-21T06:26:48.640Z,0.97
2018-06-21T06:29:17.220Z,1.10
2018-06-21T06:31:45.062Z,1.10
2018-06-21T06:34:12.816Z,0.90
2018-06-21T06:36:40.726Z,1.27
2018-06-21T06:39:12.712Z,1.27
2018-06-21T06:41:40.644Z,1.53
2018-06-21T06:44:08.556Z,0.90
2018-06-21T06:46:36.233Z,1.03
2018-06-21T06:49:04.673Z,1.00
2018-06-21T06:51:32.644Z,0.90
2018-06-21T06:54:00.649Z,1.13
2018-06-21T06:56:28.665Z,1.00
2018-06-21T06:58:56.580Z,1.60
2018-06-21T07:01:24.587Z,1.50
2018-06-21T07:03:52.552Z,1.20
2018-06-21T07:06:20.321Z,1.47
2018-06-21T07:08:48.130Z,1.37
2018-06-21T07:11:16.014Z,1.00
2018-06-21T07:13:43.705Z,1.03
2018-06-21T07:16:11.466Z,1.00
2018-06-21T07:18:39.404Z,1.07
2018-06-21T07:21:07.495Z,1.30
2018-06-21T07:23:35.452Z,1.00
2018-06-21T07:26:03.345Z,1.03
2018-06-21T07:28:31.346Z,0.90
2018-06-21T07:30:59.233Z,1.10
2018-06-21T07:33:27.334Z,1.73
2018-06-21T07:35:55.620Z,2.10
2018-06-21T07:38:23.575Z,0.90
2018-06-21T07:40:51.520Z,1.20
2018-06-21T07:43:20.394Z,0.83
2018-06-21T07:45:48.429Z,0.70
2018-06-21T07:48:16.240Z,0.70
2018-06-21T07:50:44.060Z,1.00
2018-06-21T07:53:11.832Z,1.10
2018-06-21T07:55:39.657Z,0.83
2018-06-21T07:58:07.636Z,0.90
2018-06-21T08:00:35.508Z,1.07
2018-06-21T08:03:03.181Z,0.83
2018-06-21T08:05:31.293Z,1.10
2018-06-21T08:07:59.100Z,0.93
2018-06-21T08:10:26.821Z,1.37
2018-06-21T08:12:54.766Z,0.90
2018-06-21T08:15:22.517Z,0.80
2018-06-21T08:17:50.553Z,1.30
2018-06-21T08:20:18.406Z,1.00
2018-06-21T08:22:46.137Z,1.00
2018-06-21T08:25:14.153Z,1.53
2018-06-21T08:27:41.988Z,0.90
2018-06-21T08:30:09.754Z,1.83
2018-06-21T08:32:37.639Z,0.97
2018-06-21T08:35:05.392Z,1.00
2018-06-21T08:37:33.294Z,0.90
2018-06-21T08:40:01.263Z,1.10
2018-06-21T08:42:29.052Z,1.50
2018-06-21T08:44:56.934Z,0.80
2018-06-21T08:47:24.825Z,1.17
2018-06-21T08:49:52.687Z,1.00
2018-06-21T08:52:20.597Z,0.90
2018-06-21T08:54:48.596Z,1.07
2018-06-21T08:57:16.641Z,0.90
2018-06-21T08:59:44.611Z,1.13
2018-06-21T09:02:12.419Z,1.27
2018-06-21T09:04:40.192Z,1.37
2018-06-21T09:07:08.192Z,0.90
2018-06-21T09:09:36.198Z,1.07
2018-06-21T09:12:04.147Z,1.43
2018-06-21T09:14:31.952Z,1.00
2018-06-21T09:16:59.728Z,0.90
2018-06-21T09:19:27.596Z,1.40
2018-06-21T09:21:55.392Z,1.10
2018-06-21T09:24:23.361Z,0.90
2018-06-21T09:26:51.178Z,1.40
2018-06-21T09:29:19.090Z,1.17
2018-06-21T09:31:47.134Z,1.30
2018-06-21T09:34:15.060Z,1.30
2018-06-21T09:36:44.072Z,1.20
2018-06-21T09:39:17.272Z,1.20
2018-06-21T09:41:50.470Z,1.00
2018-06-21T09:44:23.372Z,1.30
2018-06-21T09:46:56.417Z,1.20
2018-06-21T09:49:29.234Z,1.40
2018-06-21T09:51:57.115Z,0.80
2018-06-21T09:54:25.129Z,2.13
2018-06-21T09:56:52.960Z,1.20
2018-06-21T09:59:20.766Z,1.20
2018-06-21T10:01:48.545Z,1.10
2018-06-21T10:04:16.578Z,1.30
2018-06-21T10:06:44.390Z,1.20
2018-06-21T10:09:12.179Z,1.27
2018-06-21T10:11:40.133Z,0.83
2018-06-21T10:14:08.004Z,1.50
2018-06-21T10:16:35.795Z,1.17
2018-06-21T10:19:03.668Z,1.00
2018-06-21T10:21:31.320Z,1.00
2018-06-21T10:23:59.087Z,1.00
2018-06-21T10:26:26.997Z,1.37
2018-06-21T10:28:54.920Z,0.73
2018-06-21T10:31:22.700Z,1.13
2018-06-21T10:33:50.723Z,1.33
2018-06-21T10:36:18.615Z,1.10
2018-06-21T10:38:46.539Z,1.50
2018-06-21T10:41:14.313Z,1.80
2018-06-21T10:43:42.302Z,1.30
2018-06-21T10:46:10.281Z,1.20
2018-06-21T10:48:38.095Z,0.80
2018-06-21T10:51:05.812Z,1.50
2018-06-21T10:53:33.748Z,1.70
2018-06-21T10:56:01.583Z,1.50
2018-06-21T10:58:29.519Z,1.30
2018-06-21T11:00:57.428Z,0.70
2018-06-21T11:03:25.306Z,1.27
2018-06-21T11:05:53.135Z,0.90
2018-06-21T11:08:20.984Z,0.90
2018-06-21T11:10:48.768Z,1.30
2018-06-21T11:13:16.751Z,0.63
2018-06-21T11:15:44.587Z,0.90
2018-06-21T11:18:12.431Z,1.00
2018-06-21T11:20:40.228Z,0.70
2018-06-21T11:23:08.002Z,1.20
2018-06-21T11:25:36.041Z,1.00
2018-06-21T11:28:03.941Z,0.90
2018-06-21T11:30:31.801Z,1.00
2018-06-21T11:32:59.628Z,0.90
2018-06-21T11:35:27.461Z,0.80
2018-06-21T11:37:55.240Z,0.80
2018-06-21T11:40:23.242Z,1.10
2018-06-21T11:42:51.076Z,1.20
2018-06-21T11:45:18.783Z,1.10
2018-06-21T11:47:46.552Z,1.20
2018-06-21T11:50:14.492Z,1.50
2018-06-21T11:52:42.921Z,1.00
2018-06-21T11:55:11.574Z,1.63
2018-06-21T11:57:39.444Z,1.20
2018-06-21T12:00:07.199Z,1.43
2018-06-21T12:02:35.648Z,2.27
2018-06-21T12:05:03.499Z,1.33
2018-06-21T12:07:31.265Z,1.30
2018-06-21T12:09:59.220Z,1.20
2018-06-21T12:12:27.397Z,1.67
2018-06-21T12:14:55.217Z,1.90
2018-06-21T12:17:23.809Z,1.43
2018-06-21T12:19:51.931Z,1.20
2018-06-21T12:22:19.736Z,1.40
2018-06-21T12:24:47.611Z,1.37
2018-06-21T12:27:15.341Z,1.30
2018-06-21T12:29:43.359Z,1.70
2018-06-21T12:32:11.188Z,1.50
2018-06-21T12:34:38.989Z,1.67
2018-06-21T12:37:06.812Z,1.70
2018-06-21T12:39:34.623Z,1.10
2018-06-21T12:42:02.609Z,1.60
2018-06-21T12:44:30.553Z,1.40
2018-06-21T12:46:58.571Z,1.67
2018-06-21T12:49:26.383Z,1.50
2018-06-21T12:51:54.252Z,1.70
2018-06-21T12:54:22.175Z,1.70
2018-06-21T12:56:50.732Z,1.40
2018-06-21T12:59:18.750Z,1.60
2018-06-21T13:01:46.695Z,1.60
2018-06-21T13:04:14.664Z,1.50
2018-06-21T13:06:42.524Z,1.20
2018-06-21T13:09:15.532Z,2.17
2018-06-21T13:12:49.150Z,1.10
2018-06-21T13:15:17.043Z,1.80
2018-06-21T13:17:44.881Z,1.10
2018-06-21T13:20:12.831Z,1.90
2018-06-21T13:22:40.750Z,1.60
2018-06-21T13:25:08.671Z,1.97
2018-06-21T13:27:37.039Z,1.07
2018-06-21T13:30:05.492Z,1.17
2018-06-21T13:32:33.312Z,1.40
2018-06-21T13:35:01.124Z,1.37
2018-06-21T13:37:28.956Z,1.23
2018-06-21T13:39:56.991Z,1.17
2018-06-21T13:42:24.896Z,0.40
2018-06-21T13:44:52.704Z,1.37
2018-06-21T13:47:20.559Z,1.57
2018-06-21T13:49:48.493Z,0.63
2018-06-21T13:52:16.511Z,1.30
2018-06-21T13:54:44.348Z,1.30
2018-06-21T13:57:12.200Z,1.90
2018-06-21T13:59:40.032Z,1.70
2018-06-21T14:02:07.980Z,1.27
2018-06-21T14:04:35.925Z,1.23
2018-06-21T14:07:03.825Z,1.30
2018-06-21T14:09:31.587Z,1.67
2018-06-21T14:11:59.599Z,1.00
2018-06-21T14:14:27.538Z,1.20
2018-06-21T14:16:55.493Z,0.90
2018-06-21T14:19:23.368Z,0.90
2018-06-21T14:21:51.137Z,1.03
2018-06-21T14:24:18.956Z,0.90
2018-06-21T14:26:46.836Z,0.43
2018-06-21T14:29:15.399Z,0.93
2018-06-21T14:31:43.399Z,1.00
2018-06-21T14:34:11.332Z,0.70
2018-06-21T14:36:39.169Z,1.37
2018-06-21T14:39:07.628Z,0.70
2018-06-21T14:41:35.421Z,1.60
2018-06-21T14:44:03.161Z,1.20
2018-06-21T14:46:31.188Z,1.30
2018-06-21T14:48:59.067Z,1.50
2018-06-21T14:51:26.845Z,1.53
2018-06-21T14:53:54.811Z,1.20
2018-06-21T14:56:22.654Z,0.90
2018-06-21T14:58:50.465Z,0.90
2018-06-21T15:01:18.336Z,1.80
2018-06-21T15:03:46.241Z,1.20
2018-06-21T15:06:13.917Z,1.13
2018-06-21T15:08:41.754Z,0.77
2018-06-21T15:11:09.703Z,1.30
2018-06-21T15:13:37.609Z,1.83
2018-06-21T15:16:05.558Z,1.27
2018-06-21T15:18:33.424Z,1.23
2018-06-21T15:21:01.192Z,1.30
2018-06-21T15:23:28.989Z,1.70
2018-06-21T15:28:31.236Z,1.20
2018-06-21T15:30:59.018Z,1.50
2018-06-21T15:33:27.085Z,1.40
2018-06-21T15:35:54.982Z,2.30
2018-06-21T15:38:23.012Z,2.00
2018-06-21T15:40:57.378Z,1.50
2018-06-21T15:43:25.392Z,1.43
2018-06-21T15:45:53.209Z,2.00
2018-06-21T15:48:21.585Z,1.30
2018-06-21T15:50:49.478Z,1.73
2018-06-21T15:53:17.232Z,1.43
2018-06-21T15:55:45.128Z,1.20
2018-06-21T15:58:12.892Z,2.20
2018-06-21T16:00:40.734Z,2.47
2018-06-21T16:03:08.638Z,1.40
2018-06-21T16:05:36.512Z,2.07
2018-06-21T16:08:04.353Z,1.77
2018-06-21T16:10:32.187Z,1.67
2018-06-21T16:12:59.964Z,1.40
2018-06-21T16:15:27.784Z,1.30
2018-06-21T16:17:55.643Z,1.50
2018-06-21T16:20:23.281Z,1.50
2018-06-21T16:22:51.149Z,1.53
2018-06-21T16:25:18.940Z,1.50
2018-06-21T16:27:46.990Z,1.43
2018-06-21T16:30:14.788Z,0.87
2018-06-21T16:32:42.529Z,0.73
2018-06-21T16:35:10.600Z,1.73
2018-06-21T16:37:38.547Z,1.30
2018-06-21T16:40:06.378Z,1.43
2018-06-21T16:42:34.489Z,1.63
2018-06-21T16:45:02.358Z,0.83
2018-06-21T16:47:30.136Z,1.33
2018-06-21T16:49:57.968Z,1.20
2018-06-21T16:52:25.796Z,1.50
2018-06-21T16:54:53.747Z,1.20
2018-06-21T16:57:21.589Z,1.33
2018-06-21T16:59:49.248Z,1.60
2018-06-21T17:02:17.085Z,1.90
2018-06-21T17:04:44.894Z,1.93
2018-06-21T17:07:12.723Z,1.43
2018-06-21T17:09:40.548Z,1.90
2018-06-21T17:12:08.332Z,1.63
2018-06-21T17:14:36.180Z,0.90
2018-06-21T17:17:03.933Z,1.10
2018-06-21T17:19:31.947Z,1.30
2018-06-21T17:21:59.832Z,0.60
2018-06-21T17:24:27.591Z,1.10
2018-06-21T17:26:55.571Z,1.27
2018-06-21T17:29:23.576Z,1.30
2018-06-21T17:31:51.384Z,1.27
2018-06-21T17:34:19.504Z,1.30
2018-06-21T17:36:47.490Z,1.27
2018-06-21T17:39:15.339Z,1.70
2018-06-21T17:41:43.114Z,2.07
2018-06-21T17:44:11.065Z,1.47
2018-06-21T17:46:38.955Z,1.73
2018-06-21T17:49:06.743Z,1.10
2018-06-21T17:51:34.946Z,1.77
2018-06-21T17:54:04.572Z,1.50
2018-06-21T17:56:32.595Z,1.03
2018-06-21T17:59:00.464Z,1.20
2018-06-21T18:01:28.245Z,1.13
2018-06-21T18:03:55.828Z,2.20
2018-06-21T18:06:23.649Z,1.60
2018-06-21T18:08:51.673Z,2.00
2018-06-21T18:11:19.522Z,1.37
2018-06-21T18:13:47.514Z,1.50
2018-06-21T18:16:15.609Z,1.40
2018-06-21T18:18:43.548Z,1.30
2018-06-21T18:21:11.555Z,2.00
2018-06-21T18:23:39.697Z,1.43
2018-06-21T18:26:07.364Z,1.50
2018-06-21T18:28:35.149Z,1.30
2018-06-21T18:31:03.097Z,1.30
2018-06-21T18:33:30.945Z,1.90
2018-06-21T18:35:58.530Z,1.53
2018-06-21T18:38:26.296Z,1.07
2018-06-21T18:40:54.116Z,1.13
2018-06-21T18:43:22.087Z,1.57
2018-06-21T18:45:49.925Z,1.30
2018-06-21T18:48:18.379Z,1.33
2018-06-21T18:50:46.180Z,1.70
2018-06-21T18:53:13.962Z,1.70
2018-06-21T18:55:41.992Z,1.30
2018-06-21T18:58:09.526Z,1.77
2018-06-21T19:00:37.282Z,1.50
2018-06-21T19:03:05.259Z,1.73
2018-06-21T19:05:33.217Z,1.70
2018-06-21T19:08:06.929Z,1.10
2018-06-21T19:10:39.883Z,1.70
2018-06-21T19:13:07.860Z,1.80
2018-06-21T19:15:35.753Z,1.47
2018-06-21T19:18:03.631Z,1.27
2018-06-21T19:20:31.494Z,1.00
2018-06-21T19:22:59.295Z,1.40
2018-06-21T19:25:27.239Z,2.10
2018-06-21T19:27:55.090Z,1.47
2018-06-21T19:30:22.873Z,1.57
2018-06-21T19:32:50.847Z,1.70
2018-06-21T19:35:18.859Z,0.90
2018-06-21T19:37:46.784Z,1.23
2018-06-21T19:40:14.649Z,1.50
2018-06-21T19:42:42.440Z,1.17
2018-06-21T19:45:10.424Z,1.07
2018-06-21T19:47:38.405Z,1.33
2018-06-21T19:50:06.268Z,1.70
2018-06-21T19:52:34.054Z,1.23
2018-06-21T19:55:01.934Z,1.87
2018-06-21T19:57:29.860Z,1.60
2018-06-21T19:59:57.644Z,1.20
2018-06-21T20:02:30.808Z,2.07
2018-06-21T20:04:58.672Z,1.30
2018-06-21T20:07:26.593Z,1.77
2018-06-21T20:09:54.485Z,1.50
2018-06-21T20:12:22.465Z,1.70
2018-06-21T20:14:50.419Z,1.53
2018-06-21T20:17:18.271Z,1.60
2018-06-21T20:20:51.467Z,1.67
2018-06-21T20:23:20.343Z,1.17
2018-06-21T20:25:48.296Z,2.00
2018-06-21T20:28:16.547Z,1.30
2018-06-21T20:30:44.148Z,1.20
2018-06-21T20:33:11.929Z,1.70
2018-06-21T20:35:39.737Z,1.50
2018-06-21T20:38:07.478Z,1.37
2018-06-21T20:40:35.536Z,1.63
2018-06-21T20:43:03.429Z,1.43
2018-06-21T20:45:31.164Z,1.50
2018-06-21T20:47:59.034Z,1.63
2018-06-21T20:50:27.649Z,1.60
2018-06-21T20:52:55.442Z,1.50
2018-06-21T20:55:23.394Z,1.77
2018-06-21T20:57:51.674Z,2.10
2018-06-21T21:00:19.473Z,1.77
2018-06-21T21:02:47.950Z,1.73
2018-06-21T21:05:16.653Z,2.10
2018-06-21T21:07:45.300Z,1.97
2018-06-21T21:10:14.293Z,1.70
2018-06-21T21:12:42.312Z,1.93
2018-06-21T21:15:11.159Z,1.63
2018-06-21T21:17:39.013Z,1.87
2018-06-21T21:20:07.920Z,1.90
2018-06-21T21:22:36.504Z,1.40
2018-06-21T21:25:04.262Z,1.93
2018-06-21T21:27:31.980Z,1.50
2018-06-21T21:30:00.578Z,1.80
2018-06-21T21:32:28.378Z,2.07
2018-06-21T21:34:57.246Z,1.60
2018-06-21T21:37:25.302Z,1.73
2018-06-21T21:39:56.744Z,1.90
2018-06-21T21:42:24.491Z,1.20
2018-06-21T21:44:52.392Z,2.83
2018-06-21T21:47:20.445Z,2.23
2018-06-21T21:49:48.328Z,1.70
2018-06-21T21:52:16.137Z,1.73
2018-06-21T21:54:44.085Z,1.60
2018-06-21T21:57:12.060Z,2.30
2018-06-21T21:59:40.045Z,1.30
2018-06-21T22:02:07.986Z,1.90
2018-06-21T22:04:35.856Z,1.50
2018-06-21T22:07:03.677Z,1.57
2018-06-21T22:09:31.801Z,1.40
2018-06-21T22:11:59.578Z,1.90
2018-06-21T22:14:27.577Z,1.63
2018-06-21T22:16:55.552Z,1.03
2018-06-21T22:19:23.565Z,1.30
2018-06-21T22:21:51.424Z,1.00
2018-06-21T22:24:19.463Z,2.07
2018-06-21T22:26:47.467Z,2.70
2018-06-21T22:29:15.301Z,1.13
2018-06-21T22:31:43.089Z,2.07
2018-06-21T22:34:10.932Z,1.17
2018-06-21T22:36:38.753Z,1.90
2018-06-21T22:39:07.461Z,1.20
2018-06-21T22:41:35.223Z,1.30
2018-06-21T22:44:03.316Z,1.70
2018-06-21T22:46:31.853Z,1.20
2018-06-21T22:48:59.661Z,1.30
2018-06-21T22:51:27.516Z,1.40
2018-06-21T22:53:55.349Z,1.70
2018-06-21T22:56:23.136Z,1.50
2018-06-21T22:58:51.474Z,1.23
2018-06-21T23:01:20.236Z,1.17
2018-06-21T23:03:48.308Z,1.40
2018-06-21T23:06:16.121Z,2.57
2018-06-21T23:08:43.959Z,1.77
2018-06-21T23:11:11.904Z,1.70
2018-06-21T23:13:39.871Z,1.53
2018-06-21T23:16:07.601Z,1.20
2018-06-21T23:18:40.787Z,1.80
2018-06-21T23:21:08.737Z,1.60
2018-06-21T23:23:36.655Z,1.50
2018-06-21T23:26:04.692Z,2.07
2018-06-21T23:28:32.761Z,1.53
2018-06-21T23:31:00.487Z,1.50
2018-06-21T23:33:28.252Z,1.40
2018-06-21T23:35:56.151Z,1.63
2018-06-21T23:38:24.803Z,1.60
2018-06-21T23:40:52.952Z,1.70
2018-06-21T23:43:21.207Z,1.70
2018-06-21T23:45:49.063Z,1.73
2018-06-21T23:48:16.922Z,2.17
2018-06-21T23:50:44.735Z,1.40
2018-06-21T23:53:12.558Z,1.10
2018-06-21T23:55:40.992Z,1.20
2018-06-21T23:58:09.065Z,1.73
